Time;durP1;ratioP1;P1;durP2;ratioP2;P2;SDS_P1;SDS_P2;PMS_P1;PMS_P2;Temp;Humidity;BMP_temperature;BMP_pressure;BME280_temperature;BME280_humidity;BME280_pressure;Samples;Min_cycle;Max_cycle;Signal;HPM_P1;HPM_P2
2021/12/12 00:01:34;;;;;;;162.80;30.95;;;1.30;99.90;;;;;;4947085;28;20031;-67
2021/12/12 00:04:11;;;;;;;157.07;29.58;;;1.30;99.90;;;;;;4940168;28;20149;-68
2021/12/12 00:06:39;;;;;;;152.43;30.77;;;1.30;99.90;;;;;;4944056;28;20461;-68
2021/12/12 00:09:13;;;;;;;124.35;24.77;;;1.30;99.90;;;;;;4942610;28;20384;-68
2021/12/12 00:11:41;;;;;;;187.68;29.77;;;1.30;99.90;;;;;;4944912;28;20035;-67
2021/12/12 00:14:11;;;;;;;226.88;30.42;;;1.30;99.90;;;;;;4932663;28;20035;-67
2021/12/12 00:16:37;;;;;;;;;;;1.30;99.90;;;;;;4940649;28;20062;-68
2021/12/12 00:19:04;;;;;;;183.38;27.90;;;1.30;99.90;;;;;;4944041;28;20076;-68
2021/12/12 00:21:31;;;;;;;149.88;29.65;;;1.40;99.90;;;;;;4940426;28;20082;-68
2021/12/12 00:23:57;;;;;;;191.60;30.95;;;1.30;99.90;;;;;;4940353;28;20023;-68
2021/12/12 00:26:24;;;;;;;144.52;27.50;;;1.30;99.90;;;;;;4939301;28;20115;-68
2021/12/12 00:28:50;;;;;;;169.93;29.05;;;1.30;99.90;;;;;;4936744;28;20399;-68
2021/12/12 00:31:18;;;;;;;148.65;28.85;;;1.30;99.90;;;;;;4941465;28;20376;-68
2021/12/12 00:33:47;;;;;;;150.07;27.95;;;1.30;99.90;;;;;;4942545;28;20027;-69
2021/12/12 00:36:17;;;;;;;129.80;27.63;;;1.30;99.90;;;;;;4935401;28;20129;-68
2021/12/12 00:38:46;;;;;;;170.02;28.35;;;1.30;99.90;;;;;;4928920;28;20056;-69
2021/12/12 00:41:15;;;;;;;130.25;26.27;;;1.30;99.90;;;;;;4935678;28;20066;-68
2021/12/12 00:43:46;;;;;;;96.78;21.30;;;1.30;99.90;;;;;;4937744;28;20447;-68
2021/12/12 00:46:13;;;;;;;121.45;26.02;;;1.30;99.90;;;;;;4936305;28;20488;-68
2021/12/12 00:48:43;;;;;;;134.18;26.50;;;1.40;99.90;;;;;;4943521;28;20031;-68
2021/12/12 00:51:12;;;;;;;143.57;25.33;;;1.30;99.90;;;;;;4942903;28;20059;-68
2021/12/12 00:53:39;;;;;;;132.80;25.73;;;1.30;99.90;;;;;;4942716;28;20038;-68
2021/12/12 00:56:05;;;;;;;154.45;25.85;;;1.40;99.90;;;;;;4944008;28;20276;-68
2021/12/12 00:58:31;;;;;;;182.38;28.35;;;1.40;99.90;;;;;;4944748;28;20038;-68
2021/12/12 01:01:05;;;;;;;135.88;27.27;;;1.30;99.90;;;;;;4941356;28;20023;-68
2021/12/12 01:03:39;;;;;;;118.38;26.52;;;1.40;99.90;;;;;;4943762;28;20081;-68
2021/12/12 01:06:07;;;;;;;117.65;25.58;;;1.40;99.90;;;;;;4936568;28;20157;-68
2021/12/12 01:08:35;;;;;;;132.45;27.77;;;1.40;99.90;;;;;;4943320;28;20031;-68
2021/12/12 01:11:10;;;;;;;157.65;27.98;;;1.40;99.90;;;;;;4941578;28;20038;-68
2021/12/12 01:13:36;;;;;;;133.73;27.42;;;1.40;99.90;;;;;;4939184;28;20031;-68
2021/12/12 01:16:11;;;;;;;132.32;27.38;;;1.40;99.90;;;;;;4944349;28;20028;-69
2021/12/12 01:18:42;;;;;;;119.40;26.40;;;1.40;99.90;;;;;;4923765;29;20110;-68
2021/12/12 01:21:16;;;;;;;120.35;27.38;;;1.50;99.90;;;;;;4940943;28;20042;-68
2021/12/12 01:23:45;;;;;;;150.38;26.95;;;1.50;99.90;;;;;;4948222;28;20110;-68
2021/12/12 01:26:11;;;;;;;146.23;28.77;;;1.50;99.90;;;;;;4940007;28;20114;-68
2021/12/12 01:28:38;;;;;;;151.68;29.83;;;1.50;99.90;;;;;;4928310;29;20522;-68
2021/12/12 01:31:09;;;;;;;121.10;28.60;;;1.50;99.90;;;;;;4940736;28;20146;-68
2021/12/12 01:33:36;;;;;;;125.55;30.27;;;1.60;99.90;;;;;;4953949;23;20043;-68
2021/12/12 01:36:08;;;;;;;139.63;28.80;;;1.50;99.90;;;;;;4940779;28;20046;-69
2021/12/12 01:38:52;;;;;;;134.00;27.77;;;1.60;99.90;;;;;;4944151;28;20023;-68
2021/12/12 01:41:29;;;;;;;147.38;30.70;;;1.60;99.90;;;;;;4942643;28;20019;-69
2021/12/12 01:44:02;;;;;;;143.90;30.15;;;1.60;99.90;;;;;;4940373;28;20076;-68
2021/12/12 01:46:32;;;;;;;130.45;29.15;;;1.60;99.90;;;;;;4943910;28;20032;-68
2021/12/12 01:49:14;;;;;;;141.45;30.83;;;1.70;99.90;;;;;;4942599;29;20461;-67
2021/12/12 01:51:42;;;;;;;124.75;28.83;;;1.60;99.90;;;;;;4943610;28;20046;-68
2021/12/12 01:54:08;;;;;;;134.32;30.27;;;1.70;99.90;;;;;;4944650;28;20060;-68
2021/12/12 01:56:42;;;;;;;147.88;31.30;;;1.70;99.90;;;;;;4940346;28;20098;-69
2021/12/12 01:59:09;;;;;;;152.15;31.90;;;1.70;99.90;;;;;;4941539;28;20350;-68
2021/12/12 02:01:43;;;;;;;134.77;31.02;;;1.70;99.90;;;;;;4935288;28;20481;-67
2021/12/12 02:04:18;;;;;;;138.77;29.73;;;1.70;99.90;;;;;;4945355;28;20383;-68
2021/12/12 02:06:47;;;;;;;141.35;29.55;;;1.70;99.90;;;;;;4951897;28;20039;-69
2021/12/12 02:09:14;;;;;;;140.48;30.48;;;1.80;99.90;;;;;;4934408;28;20095;-67
2021/12/12 02:11:43;;;;;;;141.02;31.65;;;1.80;99.90;;;;;;4942690;28;20035;-69
2021/12/12 02:14:11;;;;;;;129.60;30.83;;;1.80;99.90;;;;;;4946473;28;20027;-69
2021/12/12 02:16:42;;;;;;;150.35;32.53;;;1.80;99.90;;;;;;4949318;28;20019;-69
2021/12/12 02:19:09;;;;;;;;;;;1.80;99.90;;;;;;4939970;28;20541;-68
2021/12/12 02:22:05;;;;;;;134.73;29.75;;;1.90;99.90;;;;;;4939916;28;20303;-68
2021/12/12 02:35:38;;;;;;;145.65;31.27;;;2.00;99.90;;;;;;4943458;28;20037;-69
2021/12/12 02:38:05;;;;;;;156.50;32.30;;;2.00;99.90;;;;;;4946504;28;20042;-69
2021/12/12 02:40:40;;;;;;;143.73;31.83;;;2.00;99.90;;;;;;4938843;28;20031;-69
2021/12/12 02:43:07;;;;;;;151.70;32.53;;;2.00;99.90;;;;;;4945725;28;20035;-68
2021/12/12 02:45:35;;;;;;;143.82;33.00;;;2.00;99.90;;;;;;4933074;29;20133;-69
2021/12/12 02:48:05;;;;;;;149.93;33.00;;;2.10;99.90;;;;;;4942655;28;20198;-69
2021/12/12 02:50:38;;;;;;;117.45;30.08;;;2.10;99.90;;;;;;4944738;29;20027;-68
2021/12/12 02:53:15;;;;;;;137.13;31.65;;;2.10;99.90;;;;;;4942822;28;20170;-70
2021/12/12 02:55:52;;;;;;;162.77;33.63;;;2.10;99.90;;;;;;4971875;23;20051;-67
2021/12/12 02:58:20;;;;;;;129.40;32.28;;;2.10;99.90;;;;;;4954688;28;20015;-67
2021/12/12 03:01:04;;;;;;;143.38;31.60;;;2.20;99.90;;;;;;4964909;28;20463;-66
2021/12/12 03:03:33;;;;;;;148.90;34.40;;;2.20;99.90;;;;;;4964349;28;20062;-67
2021/12/12 03:05:58;;;;;;;135.40;32.85;;;2.20;99.90;;;;;;4948119;28;20407;-67
2021/12/12 03:08:24;;;;;;;151.73;35.53;;;2.20;99.90;;;;;;4941355;28;20035;-66
2021/12/12 03:10:52;;;;;;;158.18;34.40;;;2.30;99.90;;;;;;4925346;29;20858;-66
2021/12/12 03:13:19;;;;;;;147.00;32.67;;;2.30;99.90;;;;;;4944532;28;20047;-66
2021/12/12 03:15:46;;;;;;;155.60;34.97;;;2.30;99.90;;;;;;4942242;28;20054;-67
2021/12/12 03:18:26;;;;;;;162.48;35.30;;;2.30;99.90;;;;;;4943449;28;20070;-67
2021/12/12 03:20:59;;;;;;;157.13;35.17;;;2.40;99.90;;;;;;4940471;28;20027;-67
2021/12/12 03:23:31;;;;;;;144.63;33.40;;;2.40;99.90;;;;;;4941366;28;20027;-66
2021/12/12 03:26:00;;;;;;;153.48;34.42;;;2.40;99.90;;;;;;4941378;28;20098;-67
2021/12/12 03:28:28;;;;;;;162.88;36.50;;;2.40;99.90;;;;;;4943716;28;20027;-66
2021/12/12 03:30:56;;;;;;;168.25;37.00;;;2.50;99.90;;;;;;4942988;28;20031;-67
2021/12/12 03:33:23;;;;;;;153.95;35.20;;;2.50;99.90;;;;;;4942541;28;20038;-67
2021/12/12 03:35:52;;;;;;;160.23;36.95;;;2.60;99.90;;;;;;4942919;28;20109;-66
2021/12/12 03:38:19;;;;;;;154.90;36.40;;;2.60;99.90;;;;;;4941931;28;20558;-66
2021/12/12 03:40:46;;;;;;;159.23;37.00;;;2.60;99.90;;;;;;4941298;28;20117;-66
2021/12/12 03:43:12;;;;;;;162.25;36.60;;;2.70;99.90;;;;;;4941692;28;20027;-66
2021/12/12 03:45:39;;;;;;;136.63;35.08;;;2.60;99.90;;;;;;4940013;28;20102;-66
2021/12/12 03:48:11;;;;;;;128.70;35.13;;;2.70;99.90;;;;;;4943714;28;20039;-66
2021/12/12 03:50:41;;;;;;;159.00;36.92;;;2.70;99.90;;;;;;4943127;28;20414;-66
2021/12/12 03:53:07;;;;;;;141.05;38.13;;;2.80;99.90;;;;;;4943562;28;20046;-67
2021/12/12 03:55:34;;;;;;;163.55;39.10;;;2.80;99.90;;;;;;4941862;28;20118;-67
2021/12/12 03:58:00;;;;;;;146.75;37.83;;;2.80;99.90;;;;;;4940808;28;21833;-66
2021/12/12 04:00:34;;;;;;;143.63;36.50;;;2.80;99.90;;;;;;4943067;28;20077;-67
2021/12/12 04:03:01;;;;;;;139.88;37.00;;;2.90;99.90;;;;;;4943041;28;20038;-66
2021/12/12 04:05:27;;;;;;;137.15;37.83;;;2.90;99.90;;;;;;4943602;28;20058;-67
2021/12/12 04:07:53;;;;;;;157.48;39.63;;;2.90;99.90;;;;;;4942553;28;20054;-66
2021/12/12 04:10:23;;;;;;;125.25;37.13;;;2.90;99.90;;;;;;4944101;28;20064;-66
2021/12/12 04:12:50;;;;;;;141.87;38.73;;;3.00;99.90;;;;;;4941349;28;20023;-67
2021/12/12 04:15:16;;;;;;;135.95;36.20;;;3.00;99.90;;;;;;4933980;28;20622;-67
2021/12/12 04:17:42;;;;;;;130.48;37.05;;;3.00;99.90;;;;;;4942569;28;20097;-66
2021/12/12 04:20:15;;;;;;;140.88;37.05;;;3.00;99.90;;;;;;4938076;28;20028;-67
2021/12/12 04:22:41;;;;;;;128.07;36.92;;;3.00;99.90;;;;;;4940578;28;20024;-67
2021/12/12 04:25:07;;;;;;;140.10;40.10;;;3.10;99.90;;;;;;4941658;28;20031;-67
2021/12/12 04:27:34;;;;;;;123.18;37.28;;;3.10;99.90;;;;;;4939608;28;20610;-66
2021/12/12 04:30:03;;;;;;;129.23;37.42;;;3.10;99.90;;;;;;4941910;28;20536;-67
2021/12/12 04:32:28;;;;;;;130.60;37.55;;;3.10;99.90;;;;;;4939660;28;20053;-66
2021/12/12 04:35:23;;;;;;;118.28;36.65;;;3.10;99.90;;;;;;4941539;28;20122;-66
2021/12/12 04:37:49;;;;;;;131.65;36.97;;;3.10;99.90;;;;;;4938175;28;20098;-66
2021/12/12 04:40:19;;;;;;;120.43;35.40;;;3.10;99.90;;;;;;4943494;28;20039;-67
2021/12/12 04:42:46;;;;;;;106.05;36.10;;;3.10;99.90;;;;;;4941614;28;20094;-66
2021/12/12 04:45:30;;;;;;;121.05;35.50;;;3.20;99.90;;;;;;4923279;28;20107;-67
2021/12/12 04:50:56;;;;;;;112.65;33.80;;;3.20;99.90;;;;;;4941997;28;20342;-67
2021/12/12 04:53:28;;;;;;;87.20;32.10;;;3.20;99.90;;;;;;4941865;28;20050;-67
2021/12/12 04:55:56;;;;;;;97.25;33.15;;;3.20;99.90;;;;;;4942414;28;20027;-66
2021/12/12 04:58:49;;;;;;;103.45;34.03;;;3.20;99.90;;;;;;4941777;28;20027;-67
2021/12/12 05:01:17;;;;;;;103.78;33.78;;;3.20;99.90;;;;;;4912272;29;20290;-67
2021/12/12 05:03:56;;;;;;;96.20;31.13;;;3.20;99.80;;;;;;4924232;29;20035;-67
2021/12/12 05:06:49;;;;;;;90.15;31.58;;;3.20;99.80;;;;;;4925422;29;20054;-66
2021/12/12 05:09:42;;;;;;;91.30;31.02;;;3.20;99.80;;;;;;4938365;28;20227;-66
2021/12/12 05:12:23;;;;;;;88.45;30.65;;;3.20;99.70;;;;;;4929746;28;20467;-67
2021/12/12 05:15:00;;;;;;;89.10;29.83;;;3.20;99.60;;;;;;4942805;28;20043;-66
2021/12/12 05:17:38;;;;;;;93.50;31.13;;;3.20;99.50;;;;;;4941387;28;20560;-66
2021/12/12 05:20:09;;;;;;;71.88;29.65;;;3.20;99.50;;;;;;4939830;28;20039;-67
2021/12/12 05:22:38;;;;;;;75.95;28.27;;;3.20;99.40;;;;;;4936775;28;20023;-67
2021/12/12 05:25:11;;;;;;;91.68;29.55;;;3.20;99.40;;;;;;4923099;29;20675;-67
2021/12/12 05:27:38;;;;;;;85.45;28.23;;;3.20;99.30;;;;;;4940815;28;20027;-66
2021/12/12 05:30:10;;;;;;;76.90;28.90;;;3.20;99.20;;;;;;4941545;28;22221;-66
2021/12/12 05:32:36;;;;;;;65.80;28.25;;;3.20;99.20;;;;;;4940961;28;20100;-67
2021/12/12 05:35:05;;;;;;;85.60;29.15;;;3.20;99.20;;;;;;4941116;28;20031;-66
2021/12/12 05:37:31;;;;;;;73.80;28.75;;;3.20;99.20;;;;;;4939724;28;20698;-66
2021/12/12 05:40:02;;;;;;;73.50;27.35;;;3.20;99.10;;;;;;4928492;29;20086;-67
2021/12/12 05:42:29;;;;;;;73.10;27.88;;;3.20;99.10;;;;;;4941575;28;20113;-66
2021/12/12 05:44:56;;;;;;;72.10;27.77;;;3.20;99.00;;;;;;4942550;28;20085;-66
2021/12/12 05:47:22;;;;;;;76.75;26.20;;;3.20;99.10;;;;;;4925809;28;20039;-66
2021/12/12 05:49:48;;;;;;;63.35;27.58;;;3.20;99.10;;;;;;4939517;28;20034;-66
2021/12/12 05:52:17;;;;;;;72.15;28.40;;;3.20;99.10;;;;;;4940684;28;20119;-66
2021/12/12 05:54:44;;;;;;;67.25;26.33;;;3.10;99.10;;;;;;4939727;28;20035;-66
2021/12/12 05:57:10;;;;;;;85.25;27.77;;;3.20;99.10;;;;;;4933979;28;20027;-66
2021/12/12 05:59:38;;;;;;;74.45;28.08;;;3.20;99.10;;;;;;4938506;28;20414;-66
2021/12/12 06:02:06;;;;;;;71.93;26.88;;;3.20;99.10;;;;;;4943963;28;20027;-67
2021/12/12 06:04:33;;;;;;;69.45;27.00;;;3.10;99.10;;;;;;4945095;28;20027;-66
2021/12/12 06:07:02;;;;;;;75.28;26.70;;;3.20;99.20;;;;;;4944969;28;20031;-66
2021/12/12 06:09:28;;;;;;;67.95;26.20;;;3.20;99.20;;;;;;4943293;28;20035;-67
2021/12/12 06:11:55;;;;;;;68.63;26.77;;;3.20;99.20;;;;;;4944404;28;20031;-66
2021/12/12 06:14:23;;;;;;;76.13;26.25;;;3.20;99.30;;;;;;4944751;28;20371;-66
2021/12/12 06:16:49;;;;;;;54.95;23.88;;;3.10;99.30;;;;;;4943575;28;20144;-65
2021/12/12 06:19:18;;;;;;;68.25;28.60;;;3.10;99.30;;;;;;4943209;28;20053;-67
2021/12/12 06:21:44;;;;;;;61.30;25.73;;;3.10;99.30;;;;;;4942568;28;20480;-66
2021/12/12 06:24:11;;;;;;;74.13;25.85;;;3.10;99.40;;;;;;4939952;28;20111;-66
2021/12/12 06:26:38;;;;;;;66.47;25.90;;;3.10;99.40;;;;;;4946482;29;20115;-66
2021/12/12 06:29:05;;;;;;;71.28;24.90;;;3.20;99.40;;;;;;4940100;28;20035;-66
2021/12/12 06:31:31;;;;;;;65.30;25.10;;;3.10;99.40;;;;;;4941828;28;20035;-66
2021/12/12 06:33:57;;;;;;;60.63;24.33;;;3.10;99.40;;;;;;4945418;28;20561;-66
2021/12/12 06:36:23;;;;;;;63.45;24.20;;;3.10;99.40;;;;;;4937832;29;20058;-65
2021/12/12 06:38:52;;;;;;;69.75;24.48;;;3.10;99.40;;;;;;4932321;29;20031;-66
2021/12/12 06:41:20;;;;;;;64.22;25.50;;;3.10;99.50;;;;;;4918915;29;20035;-67
2021/12/12 06:43:48;;;;;;;61.83;24.25;;;3.10;99.50;;;;;;4943162;29;20031;-66
2021/12/12 06:46:14;;;;;;;56.85;24.63;;;3.10;99.50;;;;;;4922276;29;20122;-66
2021/12/12 06:48:41;;;;;;;54.95;22.92;;;3.10;99.50;;;;;;4940562;29;20159;-66
2021/12/12 06:51:08;;;;;;;53.75;23.98;;;3.10;99.50;;;;;;4934723;28;20422;-66
2021/12/12 06:53:36;;;;;;;56.53;23.85;;;3.10;99.50;;;;;;4922079;29;20226;-66
2021/12/12 06:56:04;;;;;;;54.58;24.50;;;3.10;99.50;;;;;;4944777;28;20082;-66
2021/12/12 06:58:30;;;;;;;60.70;24.08;;;3.10;99.50;;;;;;4934932;28;20313;-66
2021/12/12 07:01:04;;;;;;;60.58;23.90;;;3.10;99.50;;;;;;4941607;28;20035;-66
2021/12/12 07:03:31;;;;;;;58.63;22.88;;;3.10;99.60;;;;;;4934892;28;20039;-66
2021/12/12 07:05:57;;;;;;;58.00;23.17;;;3.10;99.60;;;;;;4923521;29;20027;-66
2021/12/12 07:08:24;;;;;;;57.45;22.80;;;3.10;99.60;;;;;;4937844;28;20037;-66
2021/12/12 07:10:50;;;;;;;55.95;21.00;;;3.10;99.60;;;;;;4937047;28;20434;-66
2021/12/12 07:13:16;;;;;;;63.35;22.25;;;3.10;99.60;;;;;;4924172;29;20023;-66
2021/12/12 07:15:48;;;;;;;50.20;22.13;;;3.10;99.60;;;;;;4936734;28;20505;-66
2021/12/12 07:18:18;;;;;;;52.95;20.90;;;3.10;99.60;;;;;;4922755;29;20034;-66
2021/12/12 07:20:48;;;;;;;54.38;20.60;;;3.20;99.60;;;;;;4935724;28;20035;-65
2021/12/12 07:23:15;;;;;;;51.55;19.98;;;3.20;99.60;;;;;;4932876;28;20043;-66
2021/12/12 07:25:43;;;;;;;51.17;20.52;;;3.20;99.60;;;;;;4941481;28;20035;-65
2021/12/12 07:28:09;;;;;;;54.88;19.02;;;3.20;99.60;;;;;;4937359;28;20050;-64
2021/12/12 07:30:35;;;;;;;58.75;20.08;;;3.20;99.60;;;;;;4941694;28;20024;-65
2021/12/12 07:33:03;;;;;;;52.53;20.23;;;3.20;99.60;;;;;;4937811;29;20102;-65
2021/12/12 07:35:33;;;;;;;51.70;18.50;;;3.20;99.60;;;;;;4939715;28;20073;-65
2021/12/12 07:37:59;;;;;;;48.50;18.90;;;3.20;99.60;;;;;;4942066;28;20070;-66
2021/12/12 07:40:25;;;;;;;52.90;19.55;;;3.20;99.60;;;;;;4936305;28;20647;-66
2021/12/12 07:42:52;;;;;;;53.50;19.27;;;3.30;99.70;;;;;;4936454;28;20023;-65
2021/12/12 07:45:21;;;;;;;47.33;19.63;;;3.20;99.60;;;;;;4939124;28;20031;-66
2021/12/12 07:47:47;;;;;;;35.63;15.90;;;3.30;99.70;;;;;;4934488;28;20582;-65
2021/12/12 07:50:15;;;;;;;40.58;16.88;;;3.40;99.60;;;;;;4942705;28;20130;-66
2021/12/12 07:52:42;;;;;;;37.72;16.80;;;3.40;99.60;;;;;;4943135;28;20075;-65
2021/12/12 07:55:08;;;;;;;41.78;16.58;;;3.40;99.60;;;;;;4935508;28;20066;-65
2021/12/12 07:57:34;;;;;;;41.00;15.73;;;3.40;99.60;;;;;;4936011;28;20434;-65
2021/12/12 08:00:01;;;;;;;40.08;15.55;;;3.40;99.60;;;;;;4936236;28;20122;-65
2021/12/12 08:02:27;;;;;;;34.20;14.00;;;3.40;99.60;;;;;;4944006;29;20042;-65
2021/12/12 08:04:54;;;;;;;36.10;14.55;;;3.50;99.60;;;;;;4942206;28;20039;-66
2021/12/12 08:07:22;;;;;;;34.95;14.85;;;3.50;99.60;;;;;;4944039;28;20034;-66
2021/12/12 08:09:51;;;;;;;35.40;14.23;;;3.50;99.70;;;;;;4941230;29;20074;-65
2021/12/12 08:12:19;;;;;;;35.97;14.98;;;3.50;99.70;;;;;;4926631;29;20072;-66
2021/12/12 08:14:47;;;;;;;43.33;15.05;;;3.50;99.70;;;;;;4941506;28;20019;-66
2021/12/12 08:17:13;;;;;;;39.13;14.50;;;3.50;99.70;;;;;;4944091;29;20039;-65
2021/12/12 08:19:40;;;;;;;36.13;13.82;;;3.50;99.70;;;;;;4941327;29;20106;-65
2021/12/12 08:22:11;;;;;;;31.23;12.73;;;3.50;99.70;;;;;;4942508;29;20056;-66
2021/12/12 08:24:38;;;;;;;25.73;11.82;;;3.60;99.80;;;;;;4939427;28;20131;-66
2021/12/12 08:27:08;;;;;;;29.40;12.75;;;3.60;99.80;;;;;;4937284;29;20040;-65
2021/12/12 08:29:35;;;;;;;34.10;11.82;;;3.60;99.90;;;;;;4940865;28;20103;-65
2021/12/12 08:32:07;;;;;;;26.02;10.13;;;3.60;99.90;;;;;;4940145;28;20195;-65
2021/12/12 08:34:33;;;;;;;31.88;11.40;;;3.60;99.90;;;;;;4936601;28;20102;-66
2021/12/12 08:36:58;;;;;;;31.35;12.30;;;3.70;99.90;;;;;;4931980;28;20523;-66
2021/12/12 08:39:27;;;;;;;21.48;9.25;;;3.70;99.90;;;;;;4937356;28;20027;-66
2021/12/12 08:41:53;;;;;;;25.30;10.65;;;3.80;99.90;;;;;;4940353;28;20378;-66
2021/12/12 08:44:19;;;;;;;24.67;10.02;;;3.80;99.90;;;;;;4937713;28;20106;-66
2021/12/12 08:46:48;;;;;;;34.00;11.50;;;3.80;99.90;;;;;;4919098;29;20123;-66
2021/12/12 08:49:16;;;;;;;27.33;10.40;;;3.80;99.90;;;;;;4935894;28;20032;-66
2021/12/12 08:51:54;;;;;;;28.20;9.77;;;3.80;99.90;;;;;;4942078;29;20023;-66
2021/12/12 08:54:27;;;;;;;29.45;10.27;;;3.80;99.90;;;;;;4931948;28;20222;-66
2021/12/12 08:57:03;;;;;;;29.80;10.52;;;3.80;99.90;;;;;;4938308;28;20063;-66
2021/12/12 08:59:31;;;;;;;32.67;10.02;;;3.80;99.90;;;;;;4935630;28;20095;-66
2021/12/12 09:02:02;;;;;;;20.35;9.00;;;3.80;99.90;;;;;;4935316;28;20019;-66
2021/12/12 09:04:31;;;;;;;21.83;9.27;;;3.90;99.90;;;;;;4934733;28;20054;-66
2021/12/12 09:07:04;;;;;;;21.95;9.35;;;3.90;99.90;;;;;;4939949;28;20032;-66
2021/12/12 09:09:38;;;;;;;19.95;8.73;;;3.90;99.90;;;;;;4936255;28;20046;-66
2021/12/12 09:12:11;;;;;;;17.60;6.80;;;3.90;99.90;;;;;;4938566;28;20121;-66
2021/12/12 09:14:48;;;;;;;21.38;8.52;;;3.90;99.90;;;;;;4938214;28;20031;-66
2021/12/12 09:17:28;;;;;;;17.90;7.20;;;3.90;99.90;;;;;;4931571;28;20577;-66
2021/12/12 09:20:23;;;;;;;19.85;8.13;;;3.90;99.90;;;;;;4933185;29;20051;-66
2021/12/12 09:23:09;;;;;;;18.73;7.93;;;4.00;99.90;;;;;;4920811;28;20092;-65
2021/12/12 09:25:52;;;;;;;16.65;7.55;;;4.00;99.90;;;;;;4914207;29;20076;-65
2021/12/12 09:28:32;;;;;;;17.75;7.38;;;4.00;99.90;;;;;;4931114;29;20451;-66
2021/12/12 09:31:02;;;;;;;20.50;8.15;;;4.00;99.90;;;;;;4927906;28;20027;-66
2021/12/12 09:33:42;;;;;;;18.60;6.68;;;4.00;99.90;;;;;;4941042;29;20122;-66
2021/12/12 09:36:12;;;;;;;20.45;7.35;;;4.00;99.90;;;;;;4944322;28;20038;-66
2021/12/12 09:38:47;;;;;;;16.63;6.78;;;4.00;99.90;;;;;;4943675;29;20047;-66
2021/12/12 09:41:42;;;;;;;13.90;7.15;;;4.10;99.90;;;;;;4919174;29;20385;-66
2021/12/12 09:44:35;;;;;;;15.68;5.90;;;4.10;99.90;;;;;;4938984;28;20146;-67
2021/12/12 09:47:32;;;;;;;17.08;6.47;;;4.10;99.90;;;;;;4943888;29;20047;-68
2021/12/12 09:53:27;;;;;;;12.93;5.95;;;4.10;99.90;;;;;;4942071;29;20034;-67
2021/12/12 09:56:04;;;;;;;12.32;4.80;;;4.10;99.90;;;;;;4944349;28;20035;-67
2021/12/12 09:58:52;;;;;;;12.48;6.32;;;4.10;99.90;;;;;;4938502;28;20110;-67
2021/12/12 10:02:02;;;;;;;9.32;4.82;;;4.10;99.90;;;;;;4939911;28;20027;-67
2021/12/12 10:04:38;;;;;;;10.65;5.28;;;4.10;99.90;;;;;;4885625;29;20361;-67
2021/12/12 10:07:29;;;;;;;10.13;4.70;;;4.20;99.90;;;;;;4935514;28;20126;-67
2021/12/12 10:09:59;;;;;;;16.48;5.63;;;4.20;99.90;;;;;;4923949;29;20028;-68
2021/12/12 10:12:30;;;;;;;12.13;5.57;;;4.10;99.90;;;;;;4938593;28;20046;-67
2021/12/12 10:15:09;;;;;;;;;;;4.20;99.90;;;;;;4926998;28;20047;-68
2021/12/12 10:17:56;;;;;;;7.60;4.63;;;4.20;99.90;;;;;;4926066;29;19915;-67
2021/12/12 10:20:41;;;;;;;11.40;5.65;;;4.10;99.90;;;;;;4940592;28;20091;-66
2021/12/12 10:23:13;;;;;;;10.10;5.13;;;4.10;99.90;;;;;;4940324;28;20343;-67
2021/12/12 10:25:50;;;;;;;11.70;5.30;;;4.10;99.90;;;;;;4921424;29;20035;-67
2021/12/12 10:28:19;;;;;;;11.30;5.72;;;4.20;99.90;;;;;;4938045;28;20031;-66
2021/12/12 10:30:53;;;;;;;9.35;5.10;;;4.10;99.90;;;;;;4942880;28;20388;-66
2021/12/12 10:33:24;;;;;;;10.65;5.90;;;4.20;99.90;;;;;;4942927;29;20357;-66
2021/12/12 10:36:07;;;;;;;10.57;5.40;;;4.20;99.90;;;;;;4942915;28;20049;-66
2021/12/12 10:39:03;;;;;;;9.48;5.57;;;4.20;99.90;;;;;;4942446;28;20023;-66
2021/12/12 10:41:46;;;;;;;12.13;5.70;;;4.20;99.90;;;;;;4933487;28;20031;-66
2021/12/12 10:44:49;;;;;;;13.40;5.45;;;4.20;99.90;;;;;;4923162;28;20042;-65
2021/12/12 10:47:17;;;;;;;13.43;5.88;;;4.20;99.90;;;;;;4885772;28;20339;-66
2021/12/12 10:50:04;;;;;;;11.85;5.95;;;4.20;99.90;;;;;;4935120;28;20703;-67
2021/12/12 10:52:44;;;;;;;16.23;6.55;;;4.30;99.90;;;;;;4935624;29;20066;-67
2021/12/12 10:55:30;;;;;;;14.57;6.80;;;4.30;99.90;;;;;;4939593;28;20035;-66
2021/12/12 10:58:23;;;;;;;13.52;5.30;;;4.30;99.90;;;;;;4945505;29;20121;-67
2021/12/12 11:00:54;;;;;;;15.30;5.60;;;4.30;99.90;;;;;;4936913;28;20426;-67
2021/12/12 11:03:37;;;;;;;9.93;5.70;;;4.30;99.90;;;;;;4922591;29;20515;-67
2021/12/12 11:06:11;;;;;;;13.25;5.97;;;4.40;99.90;;;;;;4933676;28;20039;-67
2021/12/12 11:08:43;;;;;;;9.85;5.70;;;4.40;99.90;;;;;;4942050;29;20616;-67
2021/12/12 11:11:20;;;;;;;11.13;5.35;;;4.40;99.90;;;;;;4943981;28;20355;-66
2021/12/12 11:13:51;;;;;;;8.27;5.35;;;4.40;99.90;;;;;;4938029;28;20541;-67
2021/12/12 11:16:29;;;;;;;8.13;4.45;;;4.40;99.90;;;;;;4923368;29;20027;-67
2021/12/12 11:19:01;;;;;;;12.45;4.95;;;4.40;99.90;;;;;;4945829;29;20016;-67
2021/12/12 11:21:48;;;;;;;10.35;5.22;;;4.40;99.90;;;;;;4936831;28;20111;-67
2021/12/12 11:24:29;;;;;;;9.60;4.63;;;4.40;99.90;;;;;;4934061;28;20091;-67
2021/12/12 11:27:03;;;;;;;7.97;4.60;;;4.40;99.90;;;;;;4944542;28;20019;-67
2021/12/12 11:29:36;;;;;;;12.10;5.05;;;4.50;99.90;;;;;;4940789;28;20131;-67
2021/12/12 11:32:06;;;;;;;11.05;5.22;;;4.50;99.90;;;;;;4937584;28;20051;-67
2021/12/12 11:34:32;;;;;;;12.50;5.60;;;4.50;99.90;;;;;;4942609;28;20566;-66
2021/12/12 11:37:07;;;;;;;9.60;5.55;;;4.60;99.90;;;;;;4941819;28;20043;-66
2021/12/12 11:39:48;;;;;;;8.80;5.70;;;4.60;99.90;;;;;;4934042;28;20054;-66
2021/12/12 11:42:22;;;;;;;;;;;4.60;99.90;;;;;;4935272;28;20108;-66
2021/12/12 11:45:05;;;;;;;10.82;4.53;;;4.60;99.90;;;;;;4940316;28;19914;-66
2021/12/12 11:47:53;;;;;;;8.70;5.00;;;4.60;99.90;;;;;;4934776;29;20034;-67
2021/12/12 11:50:29;;;;;;;11.10;5.57;;;4.70;99.90;;;;;;4930223;28;20091;-66
2021/12/12 11:53:03;;;;;;;13.52;6.18;;;4.70;99.90;;;;;;4938045;29;20066;-66
2021/12/12 11:55:52;;;;;;;11.27;5.95;;;4.70;99.90;;;;;;4936477;28;20073;-66
2021/12/12 11:58:37;;;;;;;11.30;6.03;;;4.70;99.90;;;;;;4937539;28;20051;-66
2021/12/12 12:01:24;;;;;;;11.25;6.72;;;4.70;99.90;;;;;;4938520;28;20079;-66
2021/12/12 12:04:27;;;;;;;12.95;7.18;;;4.70;99.90;;;;;;4918825;28;20137;-65
2021/12/12 12:07:19;;;;;;;14.88;7.10;;;4.80;99.90;;;;;;4941102;28;20450;-66
2021/12/12 12:10:22;;;;;;;12.45;6.85;;;4.80;99.90;;;;;;4939431;28;20082;-66
2021/12/12 12:13:20;;;;;;;11.48;6.63;;;4.90;99.90;;;;;;4939064;28;20039;-66
2021/12/12 12:15:52;;;;;;;11.77;7.15;;;4.90;99.90;;;;;;4933292;28;20210;-66
2021/12/12 12:18:37;;;;;;;13.35;7.10;;;4.90;99.90;;;;;;4937610;28;20031;-66
2021/12/12 12:21:14;;;;;;;14.18;8.15;;;5.00;99.90;;;;;;4937517;28;20454;-66
2021/12/12 12:24:36;;;;;;;14.45;7.55;;;5.00;99.90;;;;;;4941860;29;20383;-66
2021/12/12 12:27:07;;;;;;;11.38;6.72;;;5.00;99.90;;;;;;4934523;29;20105;-66
2021/12/12 12:30:01;;;;;;;11.13;7.55;;;5.10;99.90;;;;;;4932854;28;20031;-67
2021/12/12 12:32:57;;;;;;;12.80;8.88;;;5.10;99.90;;;;;;4928682;28;20023;-67
2021/12/12 12:36:01;;;;;;;14.65;8.48;;;5.10;99.90;;;;;;4940936;28;20103;-66
2021/12/12 12:39:06;;;;;;;14.27;8.85;;;5.20;99.90;;;;;;4938212;28;20379;-66
2021/12/12 12:42:09;;;;;;;16.33;8.57;;;5.20;99.90;;;;;;4936454;29;20118;-67
2021/12/12 12:45:12;;;;;;;14.95;8.68;;;5.30;99.90;;;;;;4924141;29;20199;-66
2021/12/12 12:47:41;;;;;;;12.52;8.98;;;5.30;99.90;;;;;;4886191;28;20108;-66
2021/12/12 12:50:44;;;;;;;14.40;9.90;;;5.30;99.90;;;;;;4936681;28;20891;-66
2021/12/12 12:53:46;;;;;;;16.35;9.63;;;5.30;99.90;;;;;;4936109;28;20122;-66
2021/12/12 12:56:50;;;;;;;12.88;9.18;;;5.30;99.90;;;;;;4942238;28;20089;-66
2021/12/12 12:59:37;;;;;;;14.23;8.95;;;5.30;99.90;;;;;;4938020;28;20390;-66
2021/12/12 13:02:18;;;;;;;15.02;9.13;;;5.40;99.90;;;;;;4927200;28;20147;-65
2021/12/12 13:04:56;;;;;;;13.70;8.68;;;5.40;99.90;;;;;;4938381;28;20027;-66
2021/12/12 13:07:37;;;;;;;13.70;9.35;;;5.40;99.90;;;;;;4939963;28;20031;-65
2021/12/12 13:10:08;;;;;;;15.07;8.82;;;5.50;99.90;;;;;;4933489;28;20063;-66
2021/12/12 13:12:44;;;;;;;;;;;5.50;99.90;;;;;;4918309;29;20057;-66
2021/12/12 13:15:52;;;;;;;14.77;8.98;;;5.50;99.90;;;;;;4936043;28;20344;-66
2021/12/12 13:18:40;;;;;;;12.98;9.25;;;5.60;99.90;;;;;;4937480;28;20383;-65
2021/12/12 13:21:27;;;;;;;13.88;9.05;;;5.60;99.90;;;;;;4939429;28;20090;-65
2021/12/12 13:24:07;;;;;;;13.88;8.63;;;5.60;99.90;;;;;;4947839;28;20414;-66
2021/12/12 13:30:12;;;;;;;14.60;8.27;;;5.60;99.90;;;;;;4920364;28;20213;-66
2021/12/12 13:32:45;;;;;;;13.70;8.70;;;5.60;99.90;;;;;;4939464;28;20038;-66